Kiyomaru — JK5234 — position and weather

sailwx.info

Track history (hours):
 
Tides and Currents Weather Stations Pressure Air Temp Water Temp Dewpoint Dewpoint Depression Visibility Wind Speed Wind Dir Waves Ship Positions

Kiyomaru

Last reported at 2018-Feb-19 21:30 UTC. Time now 2018-Feb-19 21:43 UTC.
Position N 34°43' E 135°21'.

Length 121 m; draft 4 m.

Type: Cargo ship. MMSI: 431400386.

Date/timePositionNaut miles runAvg speedWind from/ knotsBaromVisibWave heightAir tempDewpointWater temp
2018-Feb-19 21:30N 34°43' E 135°21'0 0.0
2018-Feb-19 21:00N 34°43' E 135°21'0 0.0
2018-Feb-19 20:30N 34°43' E 135°21'0 0.0
2018-Feb-19 20:00N 34°43' E 135°21'0 0.0
2018-Feb-19 19:30N 34°43' E 135°21'0 0.0
2018-Feb-19 18:59N 34°43' E 135°21'0 0.0
2018-Feb-19 18:30N 34°43' E 135°21'0 0.0
2018-Feb-19 18:00N 34°43' E 135°21'0 0.0
2018-Feb-19 17:30N 34°43' E 135°21'0 0.0
2018-Feb-19 17:00N 34°43' E 135°21'0 0.0
2018-Feb-19 16:29N 34°43' E 135°21'0 0.0
2018-Feb-19 15:59N 34°43' E 135°21'0 0.0
2018-Feb-19 15:30N 34°43' E 135°21'0 0.0
2018-Feb-19 15:00N 34°43' E 135°21'0 0.0
2018-Feb-19 14:29N 34°43' E 135°21'0 0.5
2018-Feb-19 14:00N 34°43' E 135°21'3 6.2
2018-Feb-19 13:30N 34°40' E 135°21'2 3.3
2018-Feb-19 13:00N 34°39' E 135°20'0 0.8
2018-Feb-19 12:30N 34°38' E 135°21'2 3.7
2018-Feb-19 12:00N 34°38' E 135°18'4 8.5
2018-Feb-19 11:30N 34°35' E 135°14'5 9.0
2018-Feb-19 11:00N 34°35' E 135°09'5 9.4
2018-Feb-19 10:30N 34°36' E 135°03'4 8.8
2018-Feb-19 10:01N 34°36' E 134°58'510.5
2018-Feb-19 09:31N 34°34' E 134°52'5 9.7
2018-Feb-19 09:00N 34°32' E 134°47'5 9.6
2018-Feb-19 08:30N 34°30' E 134°41'5 9.5
2018-Feb-19 08:00N 34°28' E 134°36'5 9.2
2018-Feb-19 07:30N 34°27' E 134°31'5 9.3
2018-Feb-19 07:00N 34°25' E 134°25'5 9.3
2018-Feb-19 06:30N 34°24' E 134°20'610.0
2018-Feb-19 05:55N 34°24' E 134°13'8 0.4
2018-Feb-18 10:39N 34°27' E 134°04'4 9.9
2018-Feb-18 10:16N 34°26' E 134°09'3 9.5
2018-Feb-18 09:55N 34°25' E 134°12'5 9.1
2018-Feb-18 09:18N 34°25' E 134°19'3 8.8
2018-Feb-18 08:59N 34°26' E 134°22'4 8.9
2018-Feb-18 08:30N 34°28' E 134°27'4 8.7
2018-Feb-18 08:00N 34°29' E 134°32'4 8.6
2018-Feb-18 07:30N 34°31' E 134°37'4 8.2
2018-Feb-18 07:00N 34°32' E 134°41'4 8.1
2018-Feb-18 06:30N 34°33' E 134°46'4 7.6
2018-Feb-18 06:00N 34°35' E 134°50'3 6.6
2018-Feb-18 05:30N 34°36' E 134°54'4 7.5
2018-Feb-18 05:00N 34°37' E 134°58'4 7.1
2018-Feb-18 04:30N 34°37' E 135°02'4 7.9
2018-Feb-18 04:00N 34°36' E 135°07'5 9.4
2018-Feb-18 03:30N 34°36' E 135°13'4 8.9
2018-Feb-18 03:00N 34°37' E 135°18'5 9.1
2018-Feb-18 02:30N 34°36' E 135°24'2 4.0
2018-Feb-18 02:00N 34°35' E 135°26'0 0.0
2018-Feb-18 01:30N 34°35' E 135°26'0 0.0
2018-Feb-18 01:00N 34°35' E 135°26'0 0.0
2018-Feb-18 00:30N 34°35' E 135°26'0 0.0
2018-Feb-18 00:00N 34°35' E 135°26'1 2.0
2018-Feb-17 23:30N 34°36' E 135°25'4 8.3
2018-Feb-17 23:00N 34°37' E 135°20'4 8.4
2018-Feb-17 22:30N 34°41' E 135°19'1 1.9
2018-Feb-17 22:00N 34°41' E 135°19'0 0.1
2018-Feb-17 21:31N 34°41' E 135°19'0 0.1
2018-Feb-17 21:01N 34°41' E 135°19'0 0.1
2018-Feb-17 20:30N 34°41' E 135°19'0 0.1
2018-Feb-17 20:00N 34°41' E 135°19'0 0.1
2018-Feb-17 19:30N 34°41' E 135°19'0 0.0
2018-Feb-17 19:00N 34°41' E 135°19'0 0.1
2018-Feb-17 18:31N 34°41' E 135°19'0 0.0
2018-Feb-17 18:00N 34°41' E 135°19'0 0.1
2018-Feb-17 17:30N 34°41' E 135°19'0 0.1
2018-Feb-17 17:00N 34°41' E 135°19'0 0.0
2018-Feb-17 16:30N 34°41' E 135°19'0 0.0
2018-Feb-17 16:00N 34°41' E 135°19'0 0.0
2018-Feb-17 15:30N 34°41' E 135°19'0 0.0
2018-Feb-17 15:00N 34°41' E 135°19'0 0.0
2018-Feb-17 14:30N 34°41' E 135°19'0 0.0
2018-Feb-17 14:00N 34°41' E 135°19'0 0.0
2018-Feb-17 13:30N 34°41' E 135°19'0 0.0
2018-Feb-17 13:00N 34°41' E 135°19'0 0.1
2018-Feb-17 12:30N 34°41' E 135°19'0 0.0
2018-Feb-17 12:00N 34°41' E 135°19'0 0.1
2018-Feb-17 11:30N 34°41' E 135°19'0 0.1
2018-Feb-17 11:00N 34°41' E 135°19'0 0.0
2018-Feb-17 10:30N 34°41' E 135°19'0 0.0
2018-Feb-17 10:00N 34°41' E 135°19'0 0.0
2018-Feb-17 09:30N 34°41' E 135°19'0 0.0
2018-Feb-17 09:00N 34°41' E 135°19'0 0.0
2018-Feb-17 08:30N 34°41' E 135°19'0 0.0
2018-Feb-17 08:00N 34°41' E 135°19'0 0.0
2018-Feb-17 07:30N 34°41' E 135°19'0 0.0
2018-Feb-17 07:00N 34°41' E 135°19'0 0.1
2018-Feb-17 06:30N 34°42' E 135°19'0 0.0
2018-Feb-17 06:01N 34°42' E 135°19'0 0.1
2018-Feb-17 05:30N 34°41' E 135°19'0 0.1
2018-Feb-17 05:00N 34°41' E 135°19'0 0.0
2018-Feb-17 04:31N 34°42' E 135°19'0 0.0
2018-Feb-17 04:00N 34°42' E 135°19'0 0.1
2018-Feb-17 03:30N 34°42' E 135°19'1 1.9
2018-Feb-17 03:00N 34°41' E 135°19'4 8.0
2018-Feb-17 02:30N 34°37' E 135°17'4 8.9
2018-Feb-17 02:00N 34°36' E 135°12'5 9.0
2018-Feb-17 01:30N 34°35' E 135°06'3 6.9
2018-Feb-17 01:00N 34°36' E 135°02'3 5.3
2018-Feb-17 00:30N 34°37' E 134°59'4 7.5
2018-Feb-17 00:01N 34°35' E 134°55'3 5.7
2018-Feb-16 23:30N 34°34' E 134°52'3 6.8
2018-Feb-16 23:00N 34°33' E 134°48'4 7.8
2018-Feb-16 22:30N 34°31' E 134°44'4 8.4
2018-Feb-16 22:00N 34°29' E 134°40'4 8.7
2018-Feb-16 21:30N 34°28' E 134°35'5 9.0
2018-Feb-16 21:00N 34°26' E 134°29'5 9.2
2018-Feb-16 20:30N 34°25' E 134°24'5 9.2
2018-Feb-16 20:01N 34°24' E 134°19'5 9.8
2018-Feb-16 19:29N 34°24' E 134°13'8 0.2
2018-Feb-15 12:24N 34°27' E 134°04'4 9.8
2018-Feb-15 11:59N 34°26' E 134°09'7 9.8
2018-Feb-15 11:17N 34°25' E 134°17'3 9.9
2018-Feb-15 11:00N 34°25' E 134°20'5 9.6
2018-Feb-15 10:30N 34°27' E 134°26'5 9.4
2018-Feb-15 10:00N 34°28' E 134°31'5 9.4
2018-Feb-15 09:30N 34°30' E 134°36'5 9.2
2018-Feb-15 09:00N 34°32' E 134°41'5 9.1
2018-Feb-15 08:30N 34°33' E 134°47'4 8.8
2018-Feb-15 08:00N 34°35' E 134°51'4 8.4
2018-Feb-15 07:30N 34°37' E 134°56'4 7.3
2018-Feb-15 07:00N 34°38' E 135°00'3 6.3
2018-Feb-15 06:30N 34°36' E 135°04'4 8.1
2018-Feb-15 06:00N 34°36' E 135°09'4 8.9
2018-Feb-15 05:30N 34°37' E 135°14'4 9.0
2018-Feb-15 05:00N 34°37' E 135°20'4 8.6
2018-Feb-15 04:30N 34°36' E 135°25'1 2.4
2018-Feb-15 04:00N 34°35' E 135°26'0 0.0
2018-Feb-15 03:30N 34°35' E 135°26'0 0.0
2018-Feb-15 03:00N 34°35' E 135°26'0 0.0
2018-Feb-15 02:30N 34°35' E 135°26'0 0.0
2018-Feb-15 02:00N 34°35' E 135°26'0 0.0
2018-Feb-15 01:30N 34°35' E 135°26'0 0.0
2018-Feb-15 01:00N 34°35' E 135°26'0 0.0
2018-Feb-15 00:30N 34°35' E 135°26'0 0.0
2018-Feb-15 00:00N 34°35' E 135°26'1 1.7
2018-Feb-14 23:30N 34°36' E 135°25'4 8.5
2018-Feb-14 23:00N 34°37' E 135°20'4 8.1
2018-Feb-14 22:30N 34°41' E 135°19'3 5.0
2018-Feb-14 22:00N 34°43' E 135°21'0 0.0
2018-Feb-14 21:30N 34°43' E 135°21'0 0.0
2018-Feb-14 21:00N 34°43' E 135°21'0 0.0
2018-Feb-14 20:30N 34°43' E 135°21'0 0.0
2018-Feb-14 20:01N 34°43' E 135°21'0 0.0
2018-Feb-14 19:30N 34°43' E 135°21'0 0.3
2018-Feb-14 19:00N 34°43' E 135°21'3 6.0
2018-Feb-14 18:30N 34°40' E 135°22'4 8.8
2018-Feb-14 18:00N 34°37' E 135°18'4 8.7
2018-Feb-14 17:30N 34°35' E 135°13'5 9.6
2018-Feb-14 17:00N 34°35' E 135°07'611.0
2018-Feb-14 16:30N 34°37' E 135°01'611.6
2018-Feb-14 16:00N 34°35' E 134°54'510.9
2018-Feb-14 15:30N 34°33' E 134°48'5 9.6
2018-Feb-14 15:00N 34°30' E 134°43'5 9.3
2018-Feb-14 14:31N 34°29' E 134°38'5 9.2
2018-Feb-14 14:00N 34°27' E 134°33'5 9.1
2018-Feb-14 13:30N 34°25' E 134°27'5 9.0
2018-Feb-14 13:00N 34°24' E 134°22'4 8.9
2018-Feb-14 12:30N 34°24' E 134°17'4 8.2
2018-Feb-14 12:00N 34°24' E 134°12'7 0.3
2018-Feb-13 14:52N 34°27' E 134°04'5 7.2
2018-Feb-13 14:14N 34°26' E 134°09'3 7.6
2018-Feb-13 13:51N 34°25' E 134°13'3 7.4
2018-Feb-13 13:30N 34°24' E 134°16'6 8.4
2018-Feb-13 12:51N 34°25' E 134°22'3 8.8
2018-Feb-13 12:31N 34°27' E 134°26'4 8.8
2018-Feb-13 12:00N 34°28' E 134°31'4 8.3
2018-Feb-13 11:30N 34°30' E 134°35'4 8.1
2018-Feb-13 11:00N 34°31' E 134°40'4 8.3
2018-Feb-13 10:30N 34°33' E 134°45'4 8.3
2018-Feb-13 10:00N 34°34' E 134°49'4 8.9
2018-Feb-13 09:30N 34°36' E 134°54'4 8.6
2018-Feb-13 09:00N 34°38' E 134°59'4 8.4
2018-Feb-13 08:31N 34°36' E 135°04'4 8.4
2018-Feb-13 08:00N 34°36' E 135°09'4 8.3
2018-Feb-13 07:30N 34°36' E 135°14'4 8.2
2018-Feb-13 07:00N 34°36' E 135°19'4 7.4
2018-Feb-13 06:30N 34°36' E 135°23'2 4.4
2018-Feb-13 06:00N 34°35' E 135°26'0 0.1
2018-Feb-13 05:30N 34°35' E 135°26'0 0.0
2018-Feb-13 05:00N 34°35' E 135°26'0 0.0
2018-Feb-13 04:30N 34°35' E 135°26'0 0.0
2018-Feb-13 04:01N 34°35' E 135°26'0 0.0
2018-Feb-13 03:30N 34°35' E 135°26'0 0.0
2018-Feb-13 03:00N 34°35' E 135°26'0 0.0
2018-Feb-13 02:30N 34°35' E 135°26'0 0.0
2018-Feb-13 02:00N 34°35' E 135°26'0 0.0
2018-Feb-13 01:30N 34°35' E 135°26'0 0.0
2018-Feb-13 01:00N 34°35' E 135°26'0 0.0
2018-Feb-13 00:30N 34°35' E 135°26'0 0.0
2018-Feb-13 00:00N 34°35' E 135°26'1 1.7
2018-Feb-12 23:30N 34°36' E 135°25'4 8.0
2018-Feb-12 23:00N 34°37' E 135°20'4 8.7
2018-Feb-12 22:30N 34°41' E 135°19'1 2.4
2018-Feb-12 22:00N 34°42' E 135°19'0 0.0
2018-Feb-12 21:30N 34°42' E 135°19'0 0.0
2018-Feb-12 21:00N 34°42' E 135°19'0 0.0
2018-Feb-12 20:30N 34°42' E 135°19'0 0.0
2018-Feb-12 20:00N 34°42' E 135°19'0 0.0
2018-Feb-12 19:30N 34°42' E 135°19'0 0.0
2018-Feb-12 19:00N 34°42' E 135°19'0 0.0
2018-Feb-12 18:30N 34°42' E 135°19'0 0.0
2018-Feb-12 18:00N 34°42' E 135°19'0 0.0
2018-Feb-12 17:30N 34°42' E 135°19'0 0.0
2018-Feb-12 17:00N 34°42' E 135°19'0 0.0
2018-Feb-12 16:30N 34°42' E 135°19'0 0.0
2018-Feb-12 16:00N 34°42' E 135°19'0 0.0
2018-Feb-12 15:30N 34°42' E 135°19'0 0.0
2018-Feb-12 15:00N 34°42' E 135°19'0 0.0
2018-Feb-12 14:30N 34°42' E 135°19'0 0.0
2018-Feb-12 14:00N 34°42' E 135°19'0 0.0
2018-Feb-12 13:30N 34°42' E 135°19'0 0.0
2018-Feb-12 13:00N 34°42' E 135°19'0 0.0
2018-Feb-12 12:29N 34°42' E 135°19'0 0.0
2018-Feb-12 12:00N 34°42' E 135°19'0 0.1
2018-Feb-12 11:30N 34°42' E 135°19'0 0.0
2018-Feb-12 11:00N 34°42' E 135°19'0 0.0
2018-Feb-12 10:30N 34°42' E 135°19'0 0.0
2018-Feb-12 10:00N 34°42' E 135°19'0 0.0
2018-Feb-12 09:31N 34°42' E 135°19'0 0.0
2018-Feb-12 09:00N 34°42' E 135°19'0 0.0
2018-Feb-12 08:30N 34°42' E 135°19'0 0.0
2018-Feb-12 07:59N 34°42' E 135°19'0 0.0
2018-Feb-12 07:30N 34°42' E 135°19'0 0.0
2018-Feb-12 07:00N 34°42' E 135°19'0 0.0
2018-Feb-12 06:30N 34°42' E 135°19'0 0.0
2018-Feb-12 06:00N 34°42' E 135°19'0 0.1
2018-Feb-12 05:30N 34°42' E 135°19'0 0.1
2018-Feb-12 05:00N 34°42' E 135°19'0 0.0
2018-Feb-12 04:30N 34°42' E 135°19'0 0.0
2018-Feb-12 04:00N 34°42' E 135°19'0 0.0
2018-Feb-12 03:30N 34°42' E 135°19'0 0.0
2018-Feb-12 03:00N 34°42' E 135°19'0 0.0
2018-Feb-12 02:30N 34°42' E 135°19'0 0.0
2018-Feb-12 02:00N 34°42' E 135°19'0 0.0
2018-Feb-12 01:30N 34°42' E 135°19'0 0.0
2018-Feb-12 01:00N 34°42' E 135°19'0 0.0
2018-Feb-12 00:30N 34°42' E 135°19'0 0.0
2018-Feb-12 00:00N 34°42' E 135°19'0 0.0
2018-Feb-11 23:30N 34°42' E 135°19'0 0.0
2018-Feb-11 23:00N 34°42' E 135°19'0 0.0
2018-Feb-11 22:30N 34°42' E 135°19'0 0.0
2018-Feb-11 22:00N 34°42' E 135°19'0 0.0
2018-Feb-11 21:30N 34°42' E 135°19'0 0.0
2018-Feb-11 21:00N 34°42' E 135°19'0 0.0
2018-Feb-11 20:30N 34°42' E 135°19'0 0.0
2018-Feb-11 20:00N 34°42' E 135°19'0 0.0
2018-Feb-11 19:30N 34°42' E 135°19'2 3.3
2018-Feb-11 19:00N 34°43' E 135°21'0 0.0
2018-Feb-11 18:30N 34°43' E 135°21'0 0.0
2018-Feb-11 18:01N 34°43' E 135°21'0 0.0
2018-Feb-11 17:29N 34°43' E 135°21'0 0.0
2018-Feb-11 17:00N 34°43' E 135°21'0 0.0
2018-Feb-11 16:29N 34°43' E 135°21'0 0.0
2018-Feb-11 16:00N 34°43' E 135°21'0 0.0
2018-Feb-11 15:29N 34°43' E 135°21'0 0.0
2018-Feb-11 15:00N 34°43' E 135°21'0 0.0
2018-Feb-11 14:30N 34°43' E 135°21'0 0.0
2018-Feb-11 14:00N 34°43' E 135°21'0 0.0
2018-Feb-11 13:30N 34°43' E 135°21'0 0.0
2018-Feb-11 13:00N 34°43' E 135°21'0 0.0
2018-Feb-11 12:30N 34°43' E 135°21'0 0.0
2018-Feb-11 12:00N 34°43' E 135°21'0 0.0
2018-Feb-11 11:30N 34°43' E 135°21'0 0.0
2018-Feb-11 11:00N 34°43' E 135°21'0 0.0
2018-Feb-11 10:30N 34°43' E 135°21'0 0.0
2018-Feb-11 10:00N 34°43' E 135°21'0 0.0
2018-Feb-11 09:30N 34°43' E 135°21'0 0.0
2018-Feb-11 09:00N 34°43' E 135°21'0 0.0
2018-Feb-11 08:30N 34°43' E 135°21'0 0.0
2018-Feb-11 08:01N 34°43' E 135°21'0 0.0
2018-Feb-11 07:30N 34°43' E 135°21'0 0.0
2018-Feb-11 07:00N 34°43' E 135°21'0 0.0
2018-Feb-11 06:30N 34°43' E 135°21'0 0.0
2018-Feb-11 06:00N 34°43' E 135°21'0 0.0
2018-Feb-11 05:29N 34°43' E 135°21'0 0.0
2018-Feb-11 05:00N 34°43' E 135°21'0 0.0
2018-Feb-11 04:30N 34°43' E 135°21'0 0.0
2018-Feb-11 04:01N 34°43' E 135°21'0 0.0
2018-Feb-11 03:29N 34°43' E 135°21'0 0.0
2018-Feb-11 03:00N 34°43' E 135°21'0 0.0
2018-Feb-11 02:30N 34°43' E 135°21'0 0.0
2018-Feb-11 02:00N 34°43' E 135°21'0 0.0
2018-Feb-11 01:30N 34°43' E 135°21'0 0.0
2018-Feb-11 01:00N 34°43' E 135°21'0 0.0
2018-Feb-11 00:30N 34°43' E 135°21'0 0.0
2018-Feb-11 00:01N 34°43' E 135°21'0 0.0
2018-Feb-10 23:29N 34°43' E 135°21'0 0.0
2018-Feb-10 23:00N 34°43' E 135°21'0 0.0
2018-Feb-10 22:30N 34°43' E 135°21'0 0.0
2018-Feb-10 22:00N 34°43' E 135°21'0 0.0
2018-Feb-10 21:30N 34°43' E 135°21'0 0.0
2018-Feb-10 20:59N 34°43' E 135°21'0 0.0
2018-Feb-10 20:29N 34°43' E 135°21'0 0.0
2018-Feb-10 20:00N 34°43' E 135°21'0 0.0
2018-Feb-10 19:30N 34°43' E 135°21'0 0.0
2018-Feb-10 19:00N 34°43' E 135°21'0 0.0
2018-Feb-10 18:30N 34°43' E 135°21'0 0.0
2018-Feb-10 18:00N 34°43' E 135°21'0 0.0
2018-Feb-10 17:31N 34°43' E 135°21'0 0.6
2018-Feb-10 17:00N 34°43' E 135°21'3 6.7
2018-Feb-10 16:30N 34°40' E 135°21'4 8.8
2018-Feb-10 16:00N 34°37' E 135°17'4 8.7
2018-Feb-10 15:30N 34°35' E 135°12'5 9.2
2018-Feb-10 15:00N 34°35' E 135°07'510.6
2018-Feb-10 14:30N 34°37' E 135°01'610.9
2018-Feb-10 14:00N 34°35' E 134°55'510.7
2018-Feb-10 13:30N 34°32' E 134°49'5 9.8
2018-Feb-10 13:00N 34°31' E 134°43'5 9.5
2018-Feb-10 12:30N 34°29' E 134°38'5 9.4
2018-Feb-10 12:00N 34°27' E 134°33'5 9.2
2018-Feb-10 11:30N 34°26' E 134°27'5 9.2
2018-Feb-10 10:59N 34°24' E 134°22'5 9.1
2018-Feb-10 10:26N 34°24' E 134°16'  
Track history (hours):
 
Tides and Currents Weather Stations Pressure Air Temp Water Temp Dewpoint Dewpoint Depression Visibility Wind Speed Wind Dir Waves Ship Positions

Kiyomaru

Last reported at 2018-Feb-19 21:30 UTC. Time now 2018-Feb-19 21:43 UTC.
Position N 34°43' E 135°21'.

Length 121 m; draft 4 m.

Type: Cargo ship. MMSI: 431400386.

Date/timePositionNaut miles runAvg speedWind from/ knotsBaromVisibWave heightAir tempDewpointWater temp
2018-Feb-19 21:30N 34°43' E 135°21'0 0.0
2018-Feb-19 21:00N 34°43' E 135°21'0 0.0
2018-Feb-19 20:30N 34°43' E 135°21'0 0.0
2018-Feb-19 20:00N 34°43' E 135°21'0 0.0
2018-Feb-19 19:30N 34°43' E 135°21'0 0.0
2018-Feb-19 18:59N 34°43' E 135°21'0 0.0
2018-Feb-19 18:30N 34°43' E 135°21'0 0.0
2018-Feb-19 18:00N 34°43' E 135°21'0 0.0
2018-Feb-19 17:30N 34°43' E 135°21'0 0.0
2018-Feb-19 17:00N 34°43' E 135°21'0 0.0
2018-Feb-19 16:29N 34°43' E 135°21'0 0.0
2018-Feb-19 15:59N 34°43' E 135°21'0 0.0
2018-Feb-19 15:30N 34°43' E 135°21'0 0.0
2018-Feb-19 15:00N 34°43' E 135°21'0 0.0
2018-Feb-19 14:29N 34°43' E 135°21'0 0.5
2018-Feb-19 14:00N 34°43' E 135°21'3 6.2
2018-Feb-19 13:30N 34°40' E 135°21'2 3.3
2018-Feb-19 13:00N 34°39' E 135°20'0 0.8
2018-Feb-19 12:30N 34°38' E 135°21'2 3.7
2018-Feb-19 12:00N 34°38' E 135°18'4 8.5
2018-Feb-19 11:30N 34°35' E 135°14'5 9.0
2018-Feb-19 11:00N 34°35' E 135°09'5 9.4
2018-Feb-19 10:30N 34°36' E 135°03'4 8.8
2018-Feb-19 10:01N 34°36' E 134°58'510.5
2018-Feb-19 09:31N 34°34' E 134°52'5 9.7
2018-Feb-19 09:00N 34°32' E 134°47'5 9.6
2018-Feb-19 08:30N 34°30' E 134°41'5 9.5
2018-Feb-19 08:00N 34°28' E 134°36'5 9.2
2018-Feb-19 07:30N 34°27' E 134°31'5 9.3
2018-Feb-19 07:00N 34°25' E 134°25'5 9.3
2018-Feb-19 06:30N 34°24' E 134°20'610.0
2018-Feb-19 05:55N 34°24' E 134°13'8 0.4
2018-Feb-18 10:39N 34°27' E 134°04'4 9.9
2018-Feb-18 10:16N 34°26' E 134°09'3 9.5
2018-Feb-18 09:55N 34°25' E 134°12'5 9.1
2018-Feb-18 09:18N 34°25' E 134°19'3 8.8
2018-Feb-18 08:59N 34°26' E 134°22'4 8.9
2018-Feb-18 08:30N 34°28' E 134°27'4 8.7
2018-Feb-18 08:00N 34°29' E 134°32'4 8.6
2018-Feb-18 07:30N 34°31' E 134°37'4 8.2
2018-Feb-18 07:00N 34°32' E 134°41'4 8.1
2018-Feb-18 06:30N 34°33' E 134°46'4 7.6
2018-Feb-18 06:00N 34°35' E 134°50'3 6.6
2018-Feb-18 05:30N 34°36' E 134°54'4 7.5
2018-Feb-18 05:00N 34°37' E 134°58'4 7.1
2018-Feb-18 04:30N 34°37' E 135°02'4 7.9
2018-Feb-18 04:00N 34°36' E 135°07'5 9.4
2018-Feb-18 03:30N 34°36' E 135°13'4 8.9
2018-Feb-18 03:00N 34°37' E 135°18'5 9.1
2018-Feb-18 02:30N 34°36' E 135°24'2 4.0
2018-Feb-18 02:00N 34°35' E 135°26'0 0.0
2018-Feb-18 01:30N 34°35' E 135°26'0 0.0
2018-Feb-18 01:00N 34°35' E 135°26'0 0.0
2018-Feb-18 00:30N 34°35' E 135°26'0 0.0
2018-Feb-18 00:00N 34°35' E 135°26'1 2.0
2018-Feb-17 23:30N 34°36' E 135°25'4 8.3
2018-Feb-17 23:00N 34°37' E 135°20'4 8.4
2018-Feb-17 22:30N 34°41' E 135°19'1 1.9
2018-Feb-17 22:00N 34°41' E 135°19'0 0.1
2018-Feb-17 21:31N 34°41' E 135°19'0 0.1
2018-Feb-17 21:01N 34°41' E 135°19'0 0.1
2018-Feb-17 20:30N 34°41' E 135°19'0 0.1
2018-Feb-17 20:00N 34°41' E 135°19'0 0.1
2018-Feb-17 19:30N 34°41' E 135°19'0 0.0
2018-Feb-17 19:00N 34°41' E 135°19'0 0.1
2018-Feb-17 18:31N 34°41' E 135°19'0 0.0
2018-Feb-17 18:00N 34°41' E 135°19'0 0.1
2018-Feb-17 17:30N 34°41' E 135°19'0 0.1
2018-Feb-17 17:00N 34°41' E 135°19'0 0.0
2018-Feb-17 16:30N 34°41' E 135°19'0 0.0
2018-Feb-17 16:00N 34°41' E 135°19'0 0.0
2018-Feb-17 15:30N 34°41' E 135°19'0 0.0
2018-Feb-17 15:00N 34°41' E 135°19'0 0.0
2018-Feb-17 14:30N 34°41' E 135°19'0 0.0
2018-Feb-17 14:00N 34°41' E 135°19'0 0.0
2018-Feb-17 13:30N 34°41' E 135°19'0 0.0
2018-Feb-17 13:00N 34°41' E 135°19'0 0.1
2018-Feb-17 12:30N 34°41' E 135°19'0 0.0
2018-Feb-17 12:00N 34°41' E 135°19'0 0.1
2018-Feb-17 11:30N 34°41' E 135°19'0 0.1
2018-Feb-17 11:00N 34°41' E 135°19'0 0.0
2018-Feb-17 10:30N 34°41' E 135°19'0 0.0
2018-Feb-17 10:00N 34°41' E 135°19'0 0.0
2018-Feb-17 09:30N 34°41' E 135°19'0 0.0
2018-Feb-17 09:00N 34°41' E 135°19'0 0.0
2018-Feb-17 08:30N 34°41' E 135°19'0 0.0
2018-Feb-17 08:00N 34°41' E 135°19'0 0.0
2018-Feb-17 07:30N 34°41' E 135°19'0 0.0
2018-Feb-17 07:00N 34°41' E 135°19'0 0.1
2018-Feb-17 06:30N 34°42' E 135°19'0 0.0
2018-Feb-17 06:01N 34°42' E 135°19'0 0.1
2018-Feb-17 05:30N 34°41' E 135°19'0 0.1
2018-Feb-17 05:00N 34°41' E 135°19'0 0.0
2018-Feb-17 04:31N 34°42' E 135°19'0 0.0
2018-Feb-17 04:00N 34°42' E 135°19'0 0.1
2018-Feb-17 03:30N 34°42' E 135°19'1 1.9
2018-Feb-17 03:00N 34°41' E 135°19'4 8.0
2018-Feb-17 02:30N 34°37' E 135°17'4 8.9
2018-Feb-17 02:00N 34°36' E 135°12'5 9.0
2018-Feb-17 01:30N 34°35' E 135°06'3 6.9
2018-Feb-17 01:00N 34°36' E 135°02'3 5.3
2018-Feb-17 00:30N 34°37' E 134°59'4 7.5
2018-Feb-17 00:01N 34°35' E 134°55'3 5.7
2018-Feb-16 23:30N 34°34' E 134°52'3 6.8
2018-Feb-16 23:00N 34°33' E 134°48'4 7.8
2018-Feb-16 22:30N 34°31' E 134°44'4 8.4
2018-Feb-16 22:00N 34°29' E 134°40'4 8.7
2018-Feb-16 21:30N 34°28' E 134°35'5 9.0
2018-Feb-16 21:00N 34°26' E 134°29'5 9.2
2018-Feb-16 20:30N 34°25' E 134°24'5 9.2
2018-Feb-16 20:01N 34°24' E 134°19'5 9.8
2018-Feb-16 19:29N 34°24' E 134°13'8 0.2
2018-Feb-15 12:24N 34°27' E 134°04'4 9.8
2018-Feb-15 11:59N 34°26' E 134°09'7 9.8
2018-Feb-15 11:17N 34°25' E 134°17'3 9.9
2018-Feb-15 11:00N 34°25' E 134°20'5 9.6
2018-Feb-15 10:30N 34°27' E 134°26'5 9.4
2018-Feb-15 10:00N 34°28' E 134°31'5 9.4
2018-Feb-15 09:30N 34°30' E 134°36'5 9.2
2018-Feb-15 09:00N 34°32' E 134°41'5 9.1
2018-Feb-15 08:30N 34°33' E 134°47'4 8.8
2018-Feb-15 08:00N 34°35' E 134°51'4 8.4
2018-Feb-15 07:30N 34°37' E 134°56'4 7.3
2018-Feb-15 07:00N 34°38' E 135°00'3 6.3
2018-Feb-15 06:30N 34°36' E 135°04'4 8.1
2018-Feb-15 06:00N 34°36' E 135°09'4 8.9
2018-Feb-15 05:30N 34°37' E 135°14'4 9.0
2018-Feb-15 05:00N 34°37' E 135°20'4 8.6
2018-Feb-15 04:30N 34°36' E 135°25'1 2.4
2018-Feb-15 04:00N 34°35' E 135°26'0 0.0
2018-Feb-15 03:30N 34°35' E 135°26'0 0.0
2018-Feb-15 03:00N 34°35' E 135°26'0 0.0
2018-Feb-15 02:30N 34°35' E 135°26'0 0.0
2018-Feb-15 02:00N 34°35' E 135°26'0 0.0
2018-Feb-15 01:30N 34°35' E 135°26'0 0.0
2018-Feb-15 01:00N 34°35' E 135°26'0 0.0
2018-Feb-15 00:30N 34°35' E 135°26'0 0.0
2018-Feb-15 00:00N 34°35' E 135°26'1 1.7
2018-Feb-14 23:30N 34°36' E 135°25'4 8.5
2018-Feb-14 23:00N 34°37' E 135°20'4 8.1
2018-Feb-14 22:30N 34°41' E 135°19'3 5.0
2018-Feb-14 22:00N 34°43' E 135°21'0 0.0
2018-Feb-14 21:30N 34°43' E 135°21'0 0.0
2018-Feb-14 21:00N 34°43' E 135°21'0 0.0
2018-Feb-14 20:30N 34°43' E 135°21'0 0.0
2018-Feb-14 20:01N 34°43' E 135°21'0 0.0
2018-Feb-14 19:30N 34°43' E 135°21'0 0.3
2018-Feb-14 19:00N 34°43' E 135°21'3 6.0
2018-Feb-14 18:30N 34°40' E 135°22'4 8.8
2018-Feb-14 18:00N 34°37' E 135°18'4 8.7
2018-Feb-14 17:30N 34°35' E 135°13'5 9.6
2018-Feb-14 17:00N 34°35' E 135°07'611.0
2018-Feb-14 16:30N 34°37' E 135°01'611.6
2018-Feb-14 16:00N 34°35' E 134°54'510.9
2018-Feb-14 15:30N 34°33' E 134°48'5 9.6
2018-Feb-14 15:00N 34°30' E 134°43'5 9.3
2018-Feb-14 14:31N 34°29' E 134°38'5 9.2
2018-Feb-14 14:00N 34°27' E 134°33'5 9.1
2018-Feb-14 13:30N 34°25' E 134°27'5 9.0
2018-Feb-14 13:00N 34°24' E 134°22'4 8.9
2018-Feb-14 12:30N 34°24' E 134°17'4 8.2
2018-Feb-14 12:00N 34°24' E 134°12'7 0.3
2018-Feb-13 14:52N 34°27' E 134°04'5 7.2
2018-Feb-13 14:14N 34°26' E 134°09'3 7.6
2018-Feb-13 13:51N 34°25' E 134°13'3 7.4
2018-Feb-13 13:30N 34°24' E 134°16'6 8.4
2018-Feb-13 12:51N 34°25' E 134°22'3 8.8
2018-Feb-13 12:31N 34°27' E 134°26'4 8.8
2018-Feb-13 12:00N 34°28' E 134°31'4 8.3
2018-Feb-13 11:30N 34°30' E 134°35'4 8.1
2018-Feb-13 11:00N 34°31' E 134°40'4 8.3
2018-Feb-13 10:30N 34°33' E 134°45'4 8.3
2018-Feb-13 10:00N 34°34' E 134°49'4 8.9
2018-Feb-13 09:30N 34°36' E 134°54'4 8.6
2018-Feb-13 09:00N 34°38' E 134°59'4 8.4
2018-Feb-13 08:31N 34°36' E 135°04'4 8.4
2018-Feb-13 08:00N 34°36' E 135°09'4 8.3
2018-Feb-13 07:30N 34°36' E 135°14'4 8.2
2018-Feb-13 07:00N 34°36' E 135°19'4 7.4
2018-Feb-13 06:30N 34°36' E 135°23'2 4.4
2018-Feb-13 06:00N 34°35' E 135°26'0 0.1
2018-Feb-13 05:30N 34°35' E 135°26'0 0.0
2018-Feb-13 05:00N 34°35' E 135°26'0 0.0
2018-Feb-13 04:30N 34°35' E 135°26'0 0.0
2018-Feb-13 04:01N 34°35' E 135°26'0 0.0
2018-Feb-13 03:30N 34°35' E 135°26'0 0.0
2018-Feb-13 03:00N 34°35' E 135°26'0 0.0
2018-Feb-13 02:30N 34°35' E 135°26'0 0.0
2018-Feb-13 02:00N 34°35' E 135°26'0 0.0
2018-Feb-13 01:30N 34°35' E 135°26'0 0.0
2018-Feb-13 01:00N 34°35' E 135°26'0 0.0
2018-Feb-13 00:30N 34°35' E 135°26'0 0.0
2018-Feb-13 00:00N 34°35' E 135°26'1 1.7
2018-Feb-12 23:30N 34°36' E 135°25'4 8.0
2018-Feb-12 23:00N 34°37' E 135°20'4 8.7
2018-Feb-12 22:30N 34°41' E 135°19'1 2.4
2018-Feb-12 22:00N 34°42' E 135°19'0 0.0
2018-Feb-12 21:30N 34°42' E 135°19'0 0.0
2018-Feb-12 21:00N 34°42' E 135°19'0 0.0
2018-Feb-12 20:30N 34°42' E 135°19'0 0.0
2018-Feb-12 20:00N 34°42' E 135°19'0 0.0
2018-Feb-12 19:30N 34°42' E 135°19'0 0.0
2018-Feb-12 19:00N 34°42' E 135°19'0 0.0
2018-Feb-12 18:30N 34°42' E 135°19'0 0.0
2018-Feb-12 18:00N 34°42' E 135°19'0 0.0
2018-Feb-12 17:30N 34°42' E 135°19'0 0.0
2018-Feb-12 17:00N 34°42' E 135°19'0 0.0
2018-Feb-12 16:30N 34°42' E 135°19'0 0.0
2018-Feb-12 16:00N 34°42' E 135°19'0 0.0
2018-Feb-12 15:30N 34°42' E 135°19'0 0.0
2018-Feb-12 15:00N 34°42' E 135°19'0 0.0
2018-Feb-12 14:30N 34°42' E 135°19'0 0.0
2018-Feb-12 14:00N 34°42' E 135°19'0 0.0
2018-Feb-12 13:30N 34°42' E 135°19'0 0.0
2018-Feb-12 13:00N 34°42' E 135°19'0 0.0
2018-Feb-12 12:29N 34°42' E 135°19'0 0.0
2018-Feb-12 12:00N 34°42' E 135°19'0 0.1
2018-Feb-12 11:30N 34°42' E 135°19'0 0.0
2018-Feb-12 11:00N 34°42' E 135°19'0 0.0
2018-Feb-12 10:30N 34°42' E 135°19'0 0.0
2018-Feb-12 10:00N 34°42' E 135°19'0 0.0
2018-Feb-12 09:31N 34°42' E 135°19'0 0.0
2018-Feb-12 09:00N 34°42' E 135°19'0 0.0
2018-Feb-12 08:30N 34°42' E 135°19'0 0.0
2018-Feb-12 07:59N 34°42' E 135°19'0 0.0
2018-Feb-12 07:30N 34°42' E 135°19'0 0.0
2018-Feb-12 07:00N 34°42' E 135°19'0 0.0
2018-Feb-12 06:30N 34°42' E 135°19'0 0.0
2018-Feb-12 06:00N 34°42' E 135°19'0 0.1
2018-Feb-12 05:30N 34°42' E 135°19'0 0.1
2018-Feb-12 05:00N 34°42' E 135°19'0 0.0
2018-Feb-12 04:30N 34°42' E 135°19'0 0.0
2018-Feb-12 04:00N 34°42' E 135°19'0 0.0
2018-Feb-12 03:30N 34°42' E 135°19'0 0.0
2018-Feb-12 03:00N 34°42' E 135°19'0 0.0
2018-Feb-12 02:30N 34°42' E 135°19'0 0.0
2018-Feb-12 02:00N 34°42' E 135°19'0 0.0
2018-Feb-12 01:30N 34°42' E 135°19'0 0.0
2018-Feb-12 01:00N 34°42' E 135°19'0 0.0
2018-Feb-12 00:30N 34°42' E 135°19'0 0.0
2018-Feb-12 00:00N 34°42' E 135°19'0 0.0
2018-Feb-11 23:30N 34°42' E 135°19'0 0.0
2018-Feb-11 23:00N 34°42' E 135°19'0 0.0
2018-Feb-11 22:30N 34°42' E 135°19'0 0.0
2018-Feb-11 22:00N 34°42' E 135°19'0 0.0
2018-Feb-11 21:30N 34°42' E 135°19'0 0.0
2018-Feb-11 21:00N 34°42' E 135°19'0 0.0
2018-Feb-11 20:30N 34°42' E 135°19'0 0.0
2018-Feb-11 20:00N 34°42' E 135°19'0 0.0
2018-Feb-11 19:30N 34°42' E 135°19'2 3.3
2018-Feb-11 19:00N 34°43' E 135°21'0 0.0
2018-Feb-11 18:30N 34°43' E 135°21'0 0.0
2018-Feb-11 18:01N 34°43' E 135°21'0 0.0
2018-Feb-11 17:29N 34°43' E 135°21'0 0.0
2018-Feb-11 17:00N 34°43' E 135°21'0 0.0
2018-Feb-11 16:29N 34°43' E 135°21'0 0.0
2018-Feb-11 16:00N 34°43' E 135°21'0 0.0
2018-Feb-11 15:29N 34°43' E 135°21'0 0.0
2018-Feb-11 15:00N 34°43' E 135°21'0 0.0
2018-Feb-11 14:30N 34°43' E 135°21'0 0.0
2018-Feb-11 14:00N 34°43' E 135°21'0 0.0
2018-Feb-11 13:30N 34°43' E 135°21'0 0.0
2018-Feb-11 13:00N 34°43' E 135°21'0 0.0
2018-Feb-11 12:30N 34°43' E 135°21'0 0.0
2018-Feb-11 12:00N 34°43' E 135°21'0 0.0
2018-Feb-11 11:30N 34°43' E 135°21'0 0.0
2018-Feb-11 11:00N 34°43' E 135°21'0 0.0
2018-Feb-11 10:30N 34°43' E 135°21'0 0.0
2018-Feb-11 10:00N 34°43' E 135°21'0 0.0
2018-Feb-11 09:30N 34°43' E 135°21'0 0.0
2018-Feb-11 09:00N 34°43' E 135°21'0 0.0
2018-Feb-11 08:30N 34°43' E 135°21'0 0.0
2018-Feb-11 08:01N 34°43' E 135°21'0 0.0
2018-Feb-11 07:30N 34°43' E 135°21'0 0.0
2018-Feb-11 07:00N 34°43' E 135°21'0 0.0
2018-Feb-11 06:30N 34°43' E 135°21'0 0.0
2018-Feb-11 06:00N 34°43' E 135°21'0 0.0
2018-Feb-11 05:29N 34°43' E 135°21'0 0.0
2018-Feb-11 05:00N 34°43' E 135°21'0 0.0
2018-Feb-11 04:30N 34°43' E 135°21'0 0.0
2018-Feb-11 04:01N 34°43' E 135°21'0 0.0
2018-Feb-11 03:29N 34°43' E 135°21'0 0.0
2018-Feb-11 03:00N 34°43' E 135°21'0 0.0
2018-Feb-11 02:30N 34°43' E 135°21'0 0.0
2018-Feb-11 02:00N 34°43' E 135°21'0 0.0
2018-Feb-11 01:30N 34°43' E 135°21'0 0.0
2018-Feb-11 01:00N 34°43' E 135°21'0 0.0
2018-Feb-11 00:30N 34°43' E 135°21'0 0.0
2018-Feb-11 00:01N 34°43' E 135°21'0 0.0
2018-Feb-10 23:29N 34°43' E 135°21'0 0.0
2018-Feb-10 23:00N 34°43' E 135°21'0 0.0
2018-Feb-10 22:30N 34°43' E 135°21'0 0.0
2018-Feb-10 22:00N 34°43' E 135°21'0 0.0
2018-Feb-10 21:30N 34°43' E 135°21'0 0.0
2018-Feb-10 20:59N 34°43' E 135°21'0 0.0
2018-Feb-10 20:29N 34°43' E 135°21'0 0.0
2018-Feb-10 20:00N 34°43' E 135°21'0 0.0
2018-Feb-10 19:30N 34°43' E 135°21'0 0.0
2018-Feb-10 19:00N 34°43' E 135°21'0 0.0
2018-Feb-10 18:30N 34°43' E 135°21'0 0.0
2018-Feb-10 18:00N 34°43' E 135°21'0 0.0
2018-Feb-10 17:31N 34°43' E 135°21'0 0.6
2018-Feb-10 17:00N 34°43' E 135°21'3 6.7
2018-Feb-10 16:30N 34°40' E 135°21'4 8.8
2018-Feb-10 16:00N 34°37' E 135°17'4 8.7
2018-Feb-10 15:30N 34°35' E 135°12'5 9.2
2018-Feb-10 15:00N 34°35' E 135°07'510.6
2018-Feb-10 14:30N 34°37' E 135°01'610.9
2018-Feb-10 14:00N 34°35' E 134°55'510.7
2018-Feb-10 13:30N 34°32' E 134°49'5 9.8
2018-Feb-10 13:00N 34°31' E 134°43'5 9.5
2018-Feb-10 12:30N 34°29' E 134°38'5 9.4
2018-Feb-10 12:00N 34°27' E 134°33'5 9.2
2018-Feb-10 11:30N 34°26' E 134°27'5 9.2
2018-Feb-10 10:59N 34°24' E 134°22'5 9.1
2018-Feb-10 10:26N 34°24' E 134°16'  

Dump ship's entire track history